createdAt,value
2024-02-16T00:01:18.392Z,49.16
2024-02-16T00:06:20.181Z,50.33
2024-02-16T00:11:22.507Z,51.30
2024-02-16T00:16:24.200Z,50.35
2024-02-16T00:21:25.940Z,49.61
2024-02-16T00:26:27.780Z,50.54
2024-02-16T00:31:29.559Z,50.17
2024-02-16T00:36:32.052Z,50.91
2024-02-16T00:41:33.906Z,50.75
2024-02-16T00:46:37.361Z,51.72
2024-02-16T00:51:39.424Z,49.53
2024-02-16T00:56:41.074Z,49.73
2024-02-16T01:01:42.694Z,49.42
2024-02-16T01:06:44.349Z,48.92
2024-02-16T01:11:46.073Z,49.86
2024-02-16T01:16:47.881Z,49.68
2024-02-16T01:21:53.507Z,49.49
2024-02-16T01:26:55.562Z,48.32
2024-02-16T01:31:57.335Z,50.30
2024-02-16T01:36:58.970Z,50.32
2024-02-16T01:42:00.723Z,51.08
2024-02-16T01:47:05.534Z,51.87
2024-02-16T01:52:07.748Z,51.19
2024-02-16T01:57:12.160Z,49.65
2024-02-16T02:02:14.062Z,50.46
2024-02-16T02:07:16.806Z,50.05
2024-02-16T02:12:19.546Z,50.27
2024-02-16T02:17:21.293Z,51.26
2024-02-16T02:22:23.423Z,50.32
2024-02-16T02:27:25.160Z,50.41
2024-02-16T02:32:26.895Z,49.76
2024-02-16T02:37:28.553Z,49.89
2024-02-16T02:42:30.229Z,50.22
2024-02-16T02:47:31.952Z,49.11
2024-02-16T02:52:33.618Z,48.54
2024-02-16T02:57:35.271Z,47.32
2024-02-16T03:02:38.374Z,47.99
2024-02-16T03:07:40.097Z,48.71
2024-02-16T03:12:41.722Z,48.26
2024-02-16T03:17:43.442Z,48.20
2024-02-16T03:22:45.109Z,48.17
2024-02-16T03:27:46.862Z,47.23
2024-02-16T03:32:51.997Z,49.07
2024-02-16T03:37:53.735Z,49.80
2024-02-16T03:42:55.572Z,49.59
2024-02-16T03:47:57.440Z,49.15
2024-02-16T03:53:00.718Z,48.21
2024-02-16T03:58:02.976Z,48.25
2024-02-16T04:03:05.758Z,49.68
2024-02-16T04:08:07.947Z,52.63
2024-02-16T04:13:09.691Z,49.10
2024-02-16T04:18:11.545Z,49.36
2024-02-16T04:23:13.320Z,49.54
2024-02-16T04:28:15.037Z,52.51
2024-02-16T04:33:16.802Z,54.54
2024-02-16T04:38:19.441Z,52.54
2024-02-16T04:43:21.089Z,52.74
2024-02-16T04:48:22.900Z,53.37
2024-02-16T04:53:24.686Z,52.06
2024-02-16T04:58:26.504Z,51.05
2024-02-16T05:03:28.326Z,49.72
2024-02-16T05:08:30.034Z,49.52
2024-02-16T05:13:31.759Z,51.48
2024-02-16T05:18:33.577Z,55.17
2024-02-16T05:23:35.244Z,52.23
2024-02-16T05:28:36.914Z,52.16
2024-02-16T05:33:38.620Z,50.98
2024-02-16T05:38:44.526Z,52.34
2024-02-16T05:43:46.151Z,53.18
2024-02-16T05:48:47.938Z,53.96
2024-02-16T05:53:49.669Z,56.20
2024-02-16T05:58:51.457Z,56.81
2024-02-16T06:03:53.078Z,54.93
2024-02-16T06:08:54.723Z,53.23
2024-02-16T06:13:56.689Z,55.52
2024-02-16T06:18:58.460Z,57.64
2024-02-16T06:24:00.121Z,54.12
2024-02-16T06:29:02.054Z,53.71
2024-02-16T06:34:04.402Z,55.46
2024-02-16T06:39:06.208Z,57.91
2024-02-16T06:44:07.885Z,58.41
2024-02-16T06:49:09.658Z,59.20
2024-02-16T06:54:11.504Z,56.86
2024-02-16T06:59:13.203Z,52.22
2024-02-16T07:04:15.903Z,52.55
2024-02-16T07:09:17.603Z,53.97
2024-02-16T07:14:19.668Z,53.88
2024-02-16T07:19:21.439Z,57.13
2024-02-16T07:24:23.191Z,55.84
2024-02-16T07:29:24.890Z,54.29
2024-02-16T07:34:26.855Z,52.04
2024-02-16T07:39:28.567Z,51.49
2024-02-16T07:44:30.225Z,50.33
2024-02-16T07:49:32.292Z,50.72
2024-02-16T07:54:34.035Z,49.60
2024-02-16T07:59:35.739Z,50.27
2024-02-16T08:04:37.355Z,48.73
2024-02-16T08:09:39.103Z,49.11
2024-02-16T08:14:41.331Z,49.70
2024-02-16T08:19:43.106Z,48.91
2024-02-16T08:24:47.376Z,49.76
2024-02-16T08:29:49.101Z,49.89
2024-02-16T08:34:51.419Z,50.01
2024-02-16T08:39:54.011Z,50.06
2024-02-16T08:44:55.639Z,49.42
2024-02-16T08:49:57.308Z,48.23
2024-02-16T08:54:58.926Z,49.40
2024-02-16T09:00:00.704Z,48.86
2024-02-16T09:05:02.555Z,49.35
2024-02-16T09:10:05.638Z,48.60
2024-02-16T09:15:07.969Z,48.73
2024-02-16T09:20:10.360Z,49.74
2024-02-16T09:25:12.186Z,49.54
2024-02-16T09:30:14.445Z,48.31
2024-02-16T09:35:16.222Z,49.30
2024-02-16T09:40:19.538Z,49.55
2024-02-16T09:45:21.505Z,48.78
2024-02-16T09:50:23.307Z,48.41
2024-02-16T09:55:25.826Z,47.18
2024-02-16T10:00:27.982Z,48.00
2024-02-16T10:05:31.981Z,46.99
2024-02-16T10:10:38.336Z,46.40
2024-02-16T10:15:39.970Z,47.37
2024-02-16T10:20:42.338Z,47.03
2024-02-16T10:25:44.381Z,46.78
2024-02-16T10:30:46.635Z,46.13
2024-02-16T10:35:50.263Z,45.99
2024-02-16T10:40:52.904Z,46.06
2024-02-16T10:45:55.927Z,45.23
2024-02-16T10:50:58.793Z,45.28
2024-02-16T10:56:02.391Z,46.13
2024-02-16T11:06:23.185Z,48.89
2024-02-16T11:11:25.355Z,48.55
2024-02-16T11:16:29.122Z,48.56
2024-02-16T11:21:32.481Z,48.21
2024-02-16T11:26:43.567Z,48.47
2024-02-16T11:31:45.369Z,48.45
2024-02-16T11:36:47.168Z,48.35
2024-02-16T11:41:48.848Z,48.34
2024-02-16T11:46:54.938Z,48.61
2024-02-16T11:51:57.769Z,48.19
2024-02-16T11:56:59.511Z,50.00
2024-02-16T12:02:01.158Z,49.86
2024-02-16T12:07:05.705Z,49.27
2024-02-16T12:12:08.145Z,49.54
2024-02-16T12:17:09.759Z,48.68
2024-02-16T12:22:11.359Z,49.21
2024-02-16T12:27:13.420Z,48.59
2024-02-16T12:32:20.134Z,49.88
2024-02-16T12:37:23.358Z,49.32
2024-02-16T12:42:25.301Z,49.17
2024-02-16T12:47:27.016Z,49.93
2024-02-16T12:52:28.648Z,48.51
2024-02-16T12:57:30.555Z,49.09
2024-02-16T13:02:32.321Z,48.68
2024-02-16T13:07:33.977Z,50.22
2024-02-16T13:12:36.455Z,49.83
2024-02-16T13:17:38.143Z,49.31
2024-02-16T13:22:40.371Z,49.29
2024-02-16T13:27:42.074Z,49.22
2024-02-16T13:32:43.804Z,49.71
2024-02-16T13:37:45.502Z,49.85
2024-02-16T13:42:47.252Z,49.97
2024-02-16T13:47:48.838Z,50.92
2024-02-16T13:52:51.010Z,51.08
2024-02-16T13:57:52.607Z,49.83
2024-02-16T14:02:54.244Z,48.83
2024-02-16T14:08:00.631Z,48.24
2024-02-16T14:13:03.530Z,49.38
2024-02-16T14:18:11.371Z,49.65
2024-02-16T14:23:16.366Z,48.87
2024-02-16T14:28:18.011Z,50.11
2024-02-16T14:33:26.621Z,51.00
2024-02-16T14:38:34.212Z,51.69
2024-02-16T14:43:36.126Z,51.31
2024-02-16T14:48:38.220Z,50.78
2024-02-16T14:53:39.886Z,49.90
2024-02-16T14:58:41.782Z,50.79
2024-02-16T15:03:43.560Z,50.98
2024-02-16T15:08:45.291Z,52.30
2024-02-16T15:13:46.949Z,52.27
2024-02-16T15:18:48.690Z,51.60
2024-02-16T15:23:50.400Z,52.65
2024-02-16T15:28:52.016Z,52.05
2024-02-16T15:33:53.891Z,52.55
2024-02-16T15:38:55.854Z,52.65
2024-02-16T15:43:57.716Z,52.90
2024-02-16T15:48:59.391Z,54.63
2024-02-16T15:54:02.463Z,55.52
2024-02-16T15:59:04.083Z,53.27
2024-02-16T16:04:06.347Z,53.50
2024-02-16T16:09:09.979Z,54.00
2024-02-16T16:14:11.964Z,53.96
2024-02-16T16:19:13.604Z,56.35
2024-02-16T16:24:15.396Z,56.11
2024-02-16T16:29:17.042Z,55.06
2024-02-16T16:34:18.694Z,53.09
2024-02-16T16:39:20.313Z,54.29
2024-02-16T16:44:23.752Z,56.20
2024-02-16T16:49:26.273Z,56.22
2024-02-16T16:54:28.001Z,55.83
2024-02-16T16:59:29.800Z,54.60
2024-02-16T17:04:35.158Z,54.23
2024-02-16T17:09:36.955Z,55.41
2024-02-16T17:14:40.640Z,55.19
2024-02-16T17:19:42.650Z,55.60
2024-02-16T17:24:44.392Z,56.90
2024-02-16T17:29:47.364Z,55.02
2024-02-16T17:34:49.116Z,55.42
2024-02-16T17:39:52.935Z,56.65
2024-02-16T17:44:56.372Z,54.61
2024-02-16T17:49:58.130Z,54.24
2024-02-16T17:55:06.805Z,53.81
2024-02-16T18:00:11.202Z,52.58
2024-02-16T18:05:16.280Z,54.45
2024-02-16T18:10:18.393Z,54.61
2024-02-16T18:15:20.233Z,56.12
2024-02-16T18:20:22.857Z,54.90
2024-02-16T18:25:24.516Z,55.84
2024-02-16T18:30:26.563Z,55.70
2024-02-16T18:35:28.389Z,56.44
2024-02-16T18:40:30.323Z,57.64
2024-02-16T18:45:32.038Z,57.00
2024-02-16T18:50:33.784Z,57.15
2024-02-16T18:55:35.895Z,58.05
2024-02-16T19:00:38.754Z,53.46
2024-02-16T19:05:40.601Z,56.65
2024-02-16T19:10:43.639Z,55.49
2024-02-16T19:15:45.432Z,55.46
2024-02-16T19:20:47.099Z,54.31
2024-02-16T19:25:48.834Z,55.66
2024-02-16T19:30:50.645Z,56.03
2024-02-16T19:35:53.554Z,55.95
2024-02-16T19:40:55.301Z,56.46
2024-02-16T19:45:57.274Z,56.02
2024-02-16T19:50:59.233Z,57.68
2024-02-16T19:56:01.855Z,56.56
2024-02-16T20:01:03.731Z,56.09
2024-02-16T20:06:07.427Z,56.83
2024-02-16T20:11:09.513Z,57.18
2024-02-16T20:16:11.327Z,58.63
2024-02-16T20:21:13.528Z,55.13
2024-02-16T20:26:22.840Z,56.12
2024-02-16T20:31:25.054Z,55.58
2024-02-16T20:36:26.838Z,60.53
2024-02-16T20:41:29.571Z,58.94
2024-02-16T20:46:31.293Z,56.54
2024-02-16T20:51:33.052Z,58.32
2024-02-16T20:56:34.781Z,58.16
2024-02-16T21:01:36.742Z,56.57
2024-02-16T21:06:42.080Z,58.43
2024-02-16T21:11:44.097Z,57.00
2024-02-16T21:16:48.527Z,57.90
2024-02-16T21:21:50.698Z,56.94
2024-02-16T21:26:52.615Z,58.93
2024-02-16T21:31:54.310Z,56.02
2024-02-16T21:36:58.938Z,56.41
2024-02-16T21:42:00.895Z,57.73
2024-02-16T21:47:05.363Z,56.96
2024-02-16T21:52:07.764Z,56.23
2024-02-16T21:57:09.521Z,59.53
2024-02-16T22:02:11.281Z,57.44
2024-02-16T22:07:14.110Z,57.20
2024-02-16T22:12:15.975Z,57.39
2024-02-16T22:17:17.643Z,56.16
2024-02-16T22:22:19.681Z,58.15
2024-02-16T22:27:21.541Z,57.49
2024-02-16T22:32:23.243Z,58.68
2024-02-16T22:37:24.940Z,57.28
2024-02-16T22:42:26.661Z,56.38
2024-02-16T22:47:28.424Z,56.59
2024-02-16T22:52:30.125Z,56.10
2024-02-16T22:57:31.966Z,57.38
2024-02-16T23:02:33.776Z,56.20
2024-02-16T23:07:35.950Z,54.67
2024-02-16T23:12:37.944Z,55.68
2024-02-16T23:17:39.895Z,57.20
2024-02-16T23:23:03.816Z,57.17
2024-02-16T23:28:06.116Z,59.15
2024-02-16T23:33:10.225Z,58.31
2024-02-16T23:38:12.771Z,56.92
2024-02-16T23:43:15.506Z,57.46
2024-02-16T23:48:17.306Z,56.36
2024-02-16T23:53:19.093Z,56.17
2024-02-16T23:58:21.344Z,55.08
